createdAt,value
2022-09-15T00:01:16.043Z,10.50
2022-09-15T00:03:44.132Z,10.27
2022-09-15T00:06:12.208Z,9.20
2022-09-15T00:08:40.537Z,11.60
2022-09-15T00:11:11.600Z,10.70
2022-09-15T00:13:40.443Z,9.80
2022-09-15T00:16:09.251Z,10.60
2022-09-15T00:18:39.830Z,8.73
2022-09-15T00:21:08.662Z,8.10
2022-09-15T00:23:37.327Z,9.63
2022-09-15T00:26:09.390Z,14.47
2022-09-15T00:28:37.891Z,10.93
2022-09-15T00:31:07.179Z,9.97
2022-09-15T00:33:35.183Z,11.93
2022-09-15T00:36:06.590Z,11.47
2022-09-15T00:38:35.865Z,13.83
2022-09-15T00:41:05.502Z,12.20
2022-09-15T00:43:46.207Z,9.90
2022-09-15T00:46:15.039Z,10.43
2022-09-15T00:48:50.491Z,9.47
2022-09-15T00:51:24.088Z,12.07
2022-09-15T00:53:53.391Z,8.77
2022-09-15T00:56:22.288Z,13.10
2022-09-15T00:58:55.176Z,9.27
2022-09-15T01:01:26.118Z,10.80
2022-09-15T01:03:53.872Z,9.90
2022-09-15T01:06:30.585Z,8.60
2022-09-15T01:09:03.604Z,8.90
2022-09-15T01:11:32.960Z,9.07
2022-09-15T01:14:00.735Z,9.57
2022-09-15T01:16:36.379Z,12.20
2022-09-15T01:19:37.245Z,12.70
2022-09-15T01:22:26.991Z,11.90
2022-09-15T01:25:07.781Z,10.20
2022-09-15T01:27:59.456Z,10.53
2022-09-15T01:30:33.111Z,12.30
2022-09-15T01:33:12.215Z,10.17
2022-09-15T01:35:58.002Z,9.33
2022-09-15T01:38:42.347Z,10.67
2022-09-15T01:41:16.447Z,10.93
2022-09-15T01:43:50.103Z,10.25
2022-09-15T01:46:22.370Z,7.50
2022-09-15T01:48:53.402Z,10.97
2022-09-15T01:51:22.290Z,9.73
2022-09-15T01:53:51.683Z,11.53
2022-09-15T01:56:19.636Z,9.37
2022-09-15T01:58:50.766Z,9.43
2022-09-15T02:01:32.023Z,8.27
2022-09-15T02:04:05.880Z,14.30
2022-09-15T02:06:39.618Z,8.17
2022-09-15T02:09:17.455Z,12.77
2022-09-15T02:11:55.182Z,12.87
2022-09-15T02:14:37.948Z,9.67
2022-09-15T02:17:07.075Z,15.67
2022-09-15T02:19:39.780Z,14.97
2022-09-15T02:22:13.730Z,9.80
2022-09-15T02:24:44.740Z,11.30
2022-09-15T02:27:16.640Z,9.20
2022-09-15T02:29:48.138Z,9.97
2022-09-15T02:32:19.886Z,10.37
2022-09-15T02:34:52.414Z,11.97
2022-09-15T02:37:22.487Z,10.37
2022-09-15T02:39:55.534Z,10.37
2022-09-15T02:42:25.139Z,12.50
2022-09-15T02:44:53.394Z,10.60
2022-09-15T02:47:22.816Z,10.10
2022-09-15T02:49:50.591Z,15.20
2022-09-15T02:52:18.348Z,8.60
2022-09-15T02:54:46.167Z,11.27
2022-09-15T02:57:14.510Z,10.60
2022-09-15T03:00:00.125Z,10.50
2022-09-15T03:02:29.742Z,10.30
2022-09-15T03:04:57.578Z,9.50
2022-09-15T03:07:25.819Z,13.67
2022-09-15T03:09:53.788Z,10.43
2022-09-15T03:12:21.817Z,14.43
2022-09-15T03:14:50.345Z,9.90
2022-09-15T03:17:18.193Z,10.23
2022-09-15T03:19:47.286Z,9.83
2022-09-15T03:22:15.004Z,11.93
2022-09-15T03:24:43.134Z,10.17
2022-09-15T03:27:10.852Z,11.57
2022-09-15T03:29:38.597Z,11.70
2022-09-15T03:32:06.468Z,11.97
2022-09-15T03:34:34.188Z,12.50
2022-09-15T03:37:03.282Z,10.73
2022-09-15T03:39:31.038Z,11.53
2022-09-15T03:41:58.731Z,13.63
2022-09-15T03:44:26.916Z,10.63
2022-09-15T03:46:54.612Z,10.30
2022-09-15T03:49:22.679Z,13.63
2022-09-15T03:51:50.385Z,11.37
2022-09-15T03:54:19.555Z,11.30
2022-09-15T03:56:48.919Z,11.60
2022-09-15T03:59:18.811Z,13.87
2022-09-15T04:01:46.671Z,14.20
2022-09-15T04:04:15.523Z,12.83
2022-09-15T04:06:43.440Z,15.37
2022-09-15T04:09:11.520Z,16.13
2022-09-15T04:11:40.834Z,14.03
2022-09-15T04:14:08.603Z,14.27
2022-09-15T04:16:36.488Z,15.10
2022-09-15T04:19:04.647Z,15.87
2022-09-15T04:21:32.450Z,15.23
2022-09-15T04:24:00.158Z,15.43
2022-09-15T04:26:31.210Z,16.77
2022-09-15T04:29:04.329Z,16.50
2022-09-15T04:31:33.255Z,13.10
2022-09-15T04:34:01.102Z,15.90
2022-09-15T04:36:29.783Z,15.60
2022-09-15T04:38:58.106Z,13.60
2022-09-15T04:41:27.783Z,16.67
2022-09-15T04:43:55.889Z,15.13
2022-09-15T04:46:24.965Z,14.37
2022-09-15T04:48:52.724Z,20.03
2022-09-15T04:51:23.052Z,16.20
2022-09-15T04:53:51.596Z,17.33
2022-09-15T04:56:21.593Z,21.80
2022-09-15T04:58:51.387Z,17.53
2022-09-15T05:01:21.764Z,21.70
2022-09-15T05:03:51.341Z,18.10
2022-09-15T05:06:22.730Z,16.60
2022-09-15T05:08:51.934Z,17.80
2022-09-15T05:11:20.460Z,18.77
2022-09-15T05:13:48.440Z,19.53
2022-09-15T05:16:18.525Z,17.87
2022-09-15T05:18:48.285Z,18.73
2022-09-15T05:21:19.755Z,21.37
2022-09-15T05:23:48.348Z,18.43
2022-09-15T05:26:17.427Z,19.03
2022-09-15T05:28:45.268Z,19.00
2022-09-15T05:31:15.012Z,19.27
2022-09-15T05:33:42.752Z,19.80
2022-09-15T05:36:10.452Z,25.60
2022-09-15T05:38:39.472Z,23.33
2022-09-15T05:41:08.794Z,18.57
2022-09-15T05:43:37.763Z,25.43
2022-09-15T05:46:06.472Z,24.60
2022-09-15T05:48:34.690Z,23.80
2022-09-15T05:51:02.823Z,19.43
2022-09-15T05:53:30.935Z,25.13
2022-09-15T05:56:01.689Z,17.50
2022-09-15T05:58:30.398Z,21.08
2022-09-15T06:00:58.338Z,16.60
2022-09-15T06:03:30.681Z,20.27
2022-09-15T06:06:02.024Z,15.97
2022-09-15T06:08:33.700Z,28.00
2022-09-15T06:11:07.963Z,16.67
2022-09-15T06:13:36.082Z,28.17
2022-09-15T06:16:06.856Z,25.93
2022-09-15T06:18:35.965Z,15.37
2022-09-15T06:21:08.469Z,19.50
2022-09-15T06:23:37.088Z,17.67
2022-09-15T06:26:08.133Z,17.20
2022-09-15T06:28:36.163Z,21.20
2022-09-15T06:31:04.363Z,20.40
2022-09-15T06:33:32.126Z,18.87
2022-09-15T06:36:02.863Z,16.93
2022-09-15T06:38:31.220Z,29.80
2022-09-15T06:41:00.100Z,21.30
2022-09-15T06:43:31.388Z,15.50
2022-09-15T06:46:04.252Z,16.47
2022-09-15T06:48:33.080Z,16.10
2022-09-15T06:51:01.362Z,16.93
2022-09-15T06:53:32.526Z,15.60
2022-09-15T06:56:03.810Z,17.30
2022-09-15T06:58:35.727Z,15.88
2022-09-15T07:01:04.122Z,20.47
2022-09-15T07:03:32.593Z,14.57
2022-09-15T07:06:00.715Z,16.50
2022-09-15T07:08:28.571Z,14.00
2022-09-15T07:10:56.320Z,15.20
2022-09-15T07:13:24.687Z,13.60
2022-09-15T07:15:57.016Z,15.27
2022-09-15T07:18:25.704Z,15.37
2022-09-15T07:20:54.870Z,12.17
2022-09-15T07:23:22.617Z,15.40
2022-09-15T07:25:50.404Z,13.20
2022-09-15T07:28:18.644Z,21.13
2022-09-15T07:30:46.435Z,14.23
2022-09-15T07:33:15.594Z,27.63
2022-09-15T07:35:44.082Z,23.33
2022-09-15T07:38:12.268Z,18.03
2022-09-15T07:40:40.074Z,17.20
2022-09-15T07:43:07.873Z,16.00
2022-09-15T07:45:36.093Z,15.60
2022-09-15T07:48:04.163Z,14.60
2022-09-15T07:50:33.370Z,16.08
2022-09-15T07:53:01.074Z,16.23
2022-09-15T07:55:30.312Z,18.10
2022-09-15T07:57:59.104Z,15.47
2022-09-15T08:00:27.947Z,16.90
2022-09-15T08:02:55.843Z,14.93
2022-09-15T08:05:27.006Z,14.83
2022-09-15T08:07:56.592Z,12.50
2022-09-15T08:10:25.187Z,16.40
2022-09-15T08:12:56.013Z,15.33
2022-09-15T08:15:24.029Z,14.07
2022-09-15T08:17:51.958Z,17.83
2022-09-15T08:20:21.487Z,12.17
2022-09-15T08:22:49.265Z,17.73
2022-09-15T08:25:18.476Z,11.67
2022-09-15T08:27:46.183Z,13.40
2022-09-15T08:30:14.527Z,12.50
2022-09-15T08:32:42.212Z,13.27
2022-09-15T08:35:10.432Z,14.50
2022-09-15T08:37:38.142Z,13.00
2022-09-15T08:40:06.967Z,15.02
2022-09-15T08:42:36.170Z,13.73
2022-09-15T08:45:09.453Z,13.47
2022-09-15T08:47:39.483Z,11.00
2022-09-15T08:50:16.294Z,12.77
2022-09-15T08:52:49.840Z,16.13
2022-09-15T08:55:26.140Z,14.10
2022-09-15T08:57:55.644Z,12.87
2022-09-15T09:00:23.481Z,9.80
2022-09-15T09:03:14.577Z,11.77
2022-09-15T09:05:50.792Z,14.90
2022-09-15T09:08:49.848Z,16.27
2022-09-15T09:11:25.337Z,9.77
2022-09-15T09:14:03.478Z,11.43
2022-09-15T09:16:44.479Z,11.20
2022-09-15T09:19:32.356Z,12.47
2022-09-15T09:22:04.458Z,9.50
2022-09-15T09:24:37.734Z,10.90
2022-09-15T09:27:06.311Z,8.27
2022-09-15T09:29:40.256Z,10.97
2022-09-15T09:32:19.820Z,11.15
2022-09-15T09:34:55.895Z,11.07
2022-09-15T09:37:24.684Z,10.60
2022-09-15T09:39:52.466Z,9.07
2022-09-15T09:42:20.886Z,8.43
2022-09-15T09:44:49.953Z,9.67
2022-09-15T09:47:17.911Z,7.40
2022-09-15T09:49:49.308Z,8.67
2022-09-15T09:52:34.388Z,8.50
2022-09-15T09:55:02.590Z,7.80
2022-09-15T09:57:32.494Z,9.43
2022-09-15T10:00:01.783Z,10.80
2022-09-15T10:02:31.244Z,9.30
2022-09-15T10:05:20.924Z,8.80
2022-09-15T10:07:48.932Z,7.70
2022-09-15T10:10:22.501Z,6.80
2022-09-15T10:12:55.499Z,6.37
2022-09-15T10:15:26.047Z,6.80
2022-09-15T10:17:55.140Z,5.80
2022-09-15T10:20:32.314Z,7.90
2022-09-15T10:23:05.783Z,8.33
2022-09-15T10:25:57.523Z,6.43
2022-09-15T10:28:25.861Z,10.37
2022-09-15T10:31:07.193Z,9.53
2022-09-15T10:33:36.367Z,10.80
2022-09-15T10:36:07.232Z,11.07
2022-09-15T10:38:43.739Z,10.17
2022-09-15T10:41:22.998Z,7.47
2022-09-15T10:44:27.548Z,11.30
2022-09-15T10:47:06.574Z,17.53
2022-09-15T10:49:53.068Z,9.40
2022-09-15T10:52:31.955Z,9.50
2022-09-15T10:55:13.650Z,14.50
2022-09-15T10:58:00.422Z,9.20
2022-09-15T11:00:34.895Z,9.00
2022-09-15T11:03:20.250Z,10.90
2022-09-15T11:05:58.520Z,6.87
2022-09-15T11:08:37.083Z,7.63
2022-09-15T11:11:14.780Z,6.73
2022-09-15T11:13:57.050Z,8.50
2022-09-15T11:16:44.719Z,8.30
2022-09-15T11:19:45.420Z,8.70
2022-09-15T11:22:17.742Z,7.90
2022-09-15T11:24:48.941Z,8.70
2022-09-15T11:27:23.179Z,7.00
2022-09-15T11:30:01.258Z,7.80
2022-09-15T11:32:33.472Z,6.87
2022-09-15T11:35:22.792Z,9.60
2022-09-15T11:37:56.651Z,14.13
2022-09-15T11:40:29.568Z,13.80
2022-09-15T11:43:02.501Z,9.90
2022-09-15T11:45:36.417Z,7.03
2022-09-15T11:48:14.611Z,9.97
2022-09-15T11:50:47.314Z,9.90
2022-09-15T11:53:20.399Z,6.97
2022-09-15T11:55:54.091Z,5.23
2022-09-15T11:58:30.019Z,10.50
2022-09-15T12:01:03.979Z,7.47
2022-09-15T12:03:38.871Z,11.40
2022-09-15T12:06:14.647Z,8.30
2022-09-15T12:08:48.136Z,9.07
2022-09-15T12:11:20.820Z,10.40
2022-09-15T12:13:48.971Z,7.90
2022-09-15T12:16:18.440Z,6.10
2022-09-15T12:18:52.823Z,6.80
2022-09-15T12:21:30.632Z,5.93
2022-09-15T12:24:03.784Z,8.83
2022-09-15T12:26:34.742Z,8.37
2022-09-15T12:29:04.239Z,7.40
2022-09-15T12:31:37.743Z,6.60
2022-09-15T12:34:27.767Z,6.80
2022-09-15T12:37:08.713Z,9.07
2022-09-15T12:39:41.970Z,9.67
2022-09-15T12:42:20.335Z,12.60
2022-09-15T12:44:52.734Z,7.43
2022-09-15T12:47:28.862Z,7.67
2022-09-15T12:50:00.692Z,7.50
2022-09-15T12:52:30.488Z,8.00
2022-09-15T12:55:02.467Z,6.33
2022-09-15T12:57:32.981Z,8.53
2022-09-15T13:00:28.701Z,11.10
2022-09-15T13:02:57.318Z,8.20
2022-09-15T13:05:55.296Z,9.37
2022-09-15T13:08:47.477Z,7.30
2022-09-15T13:11:18.180Z,9.73
2022-09-15T13:13:50.683Z,11.33
2022-09-15T13:16:24.621Z,7.60
2022-09-15T13:19:05.800Z,8.20
2022-09-15T13:21:36.180Z,14.23
2022-09-15T13:24:09.356Z,12.17
2022-09-15T13:26:39.189Z,6.00
2022-09-15T13:29:07.465Z,6.30
2022-09-15T13:31:44.953Z,12.03
2022-09-15T13:35:06.362Z,11.93
2022-09-15T13:38:13.663Z,8.97
2022-09-15T13:41:07.905Z,9.53
2022-09-15T13:44:02.339Z,8.00
2022-09-15T13:46:44.458Z,6.17
2022-09-15T13:49:31.956Z,7.20
2022-09-15T13:52:04.203Z,11.27
2022-09-15T13:54:32.050Z,11.20
2022-09-15T13:57:02.953Z,10.50
2022-09-15T13:59:34.768Z,6.60
2022-09-15T14:02:08.937Z,13.90
2022-09-15T14:04:36.910Z,11.43
2022-09-15T14:07:04.771Z,7.30
2022-09-15T14:09:38.460Z,11.33
2022-09-15T14:12:11.989Z,6.27
2022-09-15T14:14:42.842Z,8.63
2022-09-15T14:17:20.185Z,20.07
2022-09-15T14:19:49.779Z,17.57
2022-09-15T14:22:26.562Z,12.43
2022-09-15T14:24:55.057Z,11.97
2022-09-15T14:27:28.848Z,9.50
2022-09-15T14:29:58.686Z,6.90
2022-09-15T14:32:29.187Z,7.10
2022-09-15T14:35:00.718Z,11.37
2022-09-15T14:37:31.952Z,6.03
2022-09-15T14:40:01.593Z,6.20
2022-09-15T14:42:34.571Z,8.10
2022-09-15T14:48:02.088Z,10.20
2022-09-15T14:50:33.088Z,6.70
2022-09-15T14:53:04.607Z,6.07
2022-09-15T14:55:37.057Z,11.80
2022-09-15T14:58:12.640Z,6.67
2022-09-15T15:00:45.680Z,8.67
2022-09-15T15:03:23.345Z,6.67
2022-09-15T15:06:02.555Z,5.93
2022-09-15T15:08:38.452Z,8.70
2022-09-15T15:11:08.417Z,8.60
2022-09-15T15:13:39.749Z,5.77
2022-09-15T15:16:12.302Z,6.07
2022-09-15T15:18:42.236Z,8.17
2022-09-15T15:21:31.525Z,6.60
2022-09-15T15:23:59.371Z,6.73
2022-09-15T15:26:35.832Z,7.80
2022-09-15T15:29:09.072Z,10.30
2022-09-15T15:31:40.980Z,6.80
2022-09-15T15:34:25.160Z,9.67
2022-09-15T15:36:52.941Z,7.33
2022-09-15T15:39:25.712Z,8.10
2022-09-15T15:42:02.879Z,7.47
2022-09-15T15:44:32.789Z,8.10
2022-09-15T15:47:02.665Z,7.20
2022-09-15T15:49:32.763Z,6.90
2022-09-15T15:52:02.044Z,7.60
2022-09-15T15:54:29.756Z,7.50
2022-09-15T15:57:20.542Z,6.70
2022-09-15T15:59:49.731Z,7.30
2022-09-15T16:02:17.508Z,8.23
2022-09-15T16:04:45.260Z,7.47
2022-09-15T16:07:17.559Z,6.63
2022-09-15T16:09:46.799Z,8.37
2022-09-15T16:12:15.148Z,8.80
2022-09-15T16:14:42.883Z,7.17
2022-09-15T16:17:11.916Z,8.37
2022-09-15T16:19:40.232Z,7.70
2022-09-15T16:22:07.967Z,5.40
2022-09-15T16:24:35.655Z,14.07
2022-09-15T16:27:04.470Z,5.90
2022-09-15T16:29:36.189Z,7.50
2022-09-15T16:32:06.991Z,8.70
2022-09-15T16:34:36.034Z,8.87
2022-09-15T16:37:03.739Z,11.70
2022-09-15T16:39:31.426Z,7.20
2022-09-15T16:44:28.183Z,10.23
2022-09-15T16:46:55.908Z,8.03
2022-09-15T16:49:23.812Z,11.37
2022-09-15T16:51:52.838Z,7.97
2022-09-15T16:54:22.102Z,8.80
2022-09-15T16:56:49.826Z,8.17
2022-09-15T16:59:17.817Z,5.90
2022-09-15T17:01:45.610Z,8.97
2022-09-15T17:04:16.881Z,9.03
2022-09-15T17:06:44.688Z,8.53
2022-09-15T17:09:13.774Z,12.17
2022-09-15T17:11:41.455Z,7.00
2022-09-15T17:14:13.012Z,9.83
2022-09-15T17:16:40.683Z,6.77
2022-09-15T17:19:08.384Z,6.83
2022-09-15T17:21:36.152Z,9.50
2022-09-15T17:24:04.128Z,7.67
2022-09-15T17:26:33.316Z,6.53
2022-09-15T17:29:01.029Z,7.00
2022-09-15T17:31:28.774Z,7.70
2022-09-15T17:33:56.519Z,7.25
2022-09-15T17:36:24.257Z,7.10
2022-09-15T17:38:52.078Z,7.17
2022-09-15T17:41:22.271Z,6.97
2022-09-15T17:43:51.863Z,6.60
2022-09-15T17:46:19.633Z,7.33
2022-09-15T17:48:47.350Z,8.37
2022-09-15T17:51:18.010Z,8.90
2022-09-15T17:53:46.854Z,9.00
2022-09-15T17:56:14.914Z,6.70
2022-09-15T17:58:43.264Z,7.33
2022-09-15T18:01:13.713Z,8.57
2022-09-15T18:03:43.325Z,6.43
2022-09-15T18:06:11.879Z,8.30
2022-09-15T18:08:39.663Z,7.50
2022-09-15T18:11:07.702Z,7.97
2022-09-15T18:13:36.062Z,8.20
2022-09-15T18:16:06.524Z,6.73
2022-09-15T18:18:35.616Z,7.10
2022-09-15T18:21:09.515Z,9.57
2022-09-15T18:23:37.456Z,7.20
2022-09-15T18:26:05.639Z,9.77
2022-09-15T18:28:33.346Z,6.80
2022-09-15T18:31:01.191Z,9.02
2022-09-15T18:33:28.884Z,6.40
2022-09-15T18:35:58.817Z,7.70
2022-09-15T18:38:26.603Z,12.70
2022-09-15T18:40:56.449Z,7.30
2022-09-15T18:43:26.252Z,7.83
2022-09-15T18:45:58.373Z,8.63
2022-09-15T18:48:26.145Z,6.13
2022-09-15T18:50:54.052Z,9.70
2022-09-15T18:53:23.395Z,12.97
2022-09-15T18:55:51.467Z,9.50
2022-09-15T18:58:19.415Z,7.83
2022-09-15T19:00:47.178Z,7.53
2022-09-15T19:03:15.661Z,5.87
2022-09-15T19:05:43.465Z,8.17
2022-09-15T19:08:11.398Z,6.10
2022-09-15T19:10:43.710Z,7.20
2022-09-15T19:13:13.847Z,6.93
2022-09-15T19:15:43.447Z,7.50
2022-09-15T19:18:11.279Z,8.60
2022-09-15T19:20:40.168Z,5.47
2022-09-15T19:23:07.966Z,7.40
2022-09-15T19:25:35.885Z,8.10
2022-09-15T19:28:05.089Z,6.65
2022-09-15T19:30:32.906Z,7.30
2022-09-15T19:33:00.746Z,6.73
2022-09-15T19:35:29.524Z,8.60
2022-09-15T19:37:57.509Z,6.03
2022-09-15T19:40:25.418Z,7.60
2022-09-15T19:42:54.340Z,6.63
2022-09-15T19:45:23.351Z,9.10
2022-09-15T19:47:51.150Z,7.10
2022-09-15T19:50:19.021Z,7.70
2022-09-15T19:52:46.807Z,6.57
2022-09-15T19:55:14.573Z,6.80
2022-09-15T19:57:43.226Z,6.53
2022-09-15T20:00:14.349Z,8.40
2022-09-15T20:02:43.490Z,5.37
2022-09-15T20:05:12.403Z,7.00
2022-09-15T20:07:40.250Z,5.70
2022-09-15T20:10:08.650Z,8.93
2022-09-15T20:12:36.421Z,8.40
2022-09-15T20:15:04.538Z,9.40
2022-09-15T20:17:32.386Z,6.57
2022-09-15T20:20:01.452Z,9.67
2022-09-15T20:22:29.237Z,6.90
2022-09-15T20:24:57.311Z,7.73
2022-09-15T20:27:25.149Z,6.70
2022-09-15T20:29:52.864Z,6.10
2022-09-15T20:32:24.983Z,11.73
2022-09-15T20:34:56.485Z,10.43
2022-09-15T20:37:25.656Z,7.83
2022-09-15T20:39:53.374Z,7.27
2022-09-15T20:42:21.099Z,8.70
2022-09-15T20:44:48.870Z,8.03
2022-09-15T20:47:16.830Z,8.80
2022-09-15T20:49:44.795Z,5.60
2022-09-15T20:52:12.536Z,5.40
2022-09-15T20:54:41.798Z,6.70
2022-09-15T20:57:10.230Z,5.50
2022-09-15T20:59:38.183Z,6.57
2022-09-15T21:02:06.816Z,6.17
2022-09-15T21:04:35.268Z,8.27
2022-09-15T21:07:03.043Z,6.70
2022-09-15T21:09:30.990Z,10.33
2022-09-15T21:12:00.818Z,8.13
2022-09-15T21:14:28.510Z,5.67
2022-09-15T21:16:56.349Z,6.63
2022-09-15T21:19:24.079Z,7.70
2022-09-15T21:21:51.776Z,10.30
2022-09-15T21:24:19.805Z,5.97
2022-09-15T21:27:05.044Z,6.63
2022-09-15T21:29:34.156Z,7.30
2022-09-15T21:32:02.087Z,7.57
2022-09-15T21:34:31.598Z,7.30
2022-09-15T21:36:59.351Z,9.67
2022-09-15T21:39:27.548Z,7.13
2022-09-15T21:41:55.623Z,8.00
2022-09-15T21:44:23.318Z,5.90
2022-09-15T21:46:52.691Z,6.37
2022-09-15T21:49:20.433Z,6.97
2022-09-15T21:51:48.628Z,7.57
2022-09-15T21:54:16.523Z,8.07
2022-09-15T21:56:45.124Z,8.07
2022-09-15T21:59:13.299Z,6.27
2022-09-15T22:01:43.052Z,7.20
2022-09-15T22:04:12.311Z,6.13
2022-09-15T22:06:41.608Z,13.93
2022-09-15T22:09:11.401Z,6.50
2022-09-15T22:11:39.247Z,6.75
2022-09-15T22:14:09.078Z,8.80
2022-09-15T22:16:38.573Z,6.30
2022-09-15T22:19:07.692Z,8.20
2022-09-15T22:21:42.130Z,6.43
2022-09-15T22:24:12.842Z,6.20
2022-09-15T22:26:41.432Z,8.27
2022-09-15T22:29:09.148Z,6.63
2022-09-15T22:31:37.028Z,5.23
2022-09-15T22:34:04.968Z,6.50
2022-09-15T22:36:33.179Z,5.63
2022-09-15T22:39:04.155Z,8.50
2022-09-15T22:41:33.187Z,5.30
2022-09-15T22:44:00.973Z,6.10
2022-09-15T22:46:28.749Z,6.10
2022-09-15T22:48:56.657Z,7.10
2022-09-15T22:51:24.609Z,6.30
2022-09-15T22:53:54.536Z,6.40
2022-09-15T22:56:25.567Z,6.77
2022-09-15T22:58:53.298Z,8.17
2022-09-15T23:01:23.588Z,5.40
2022-09-15T23:03:52.479Z,7.00
2022-09-15T23:06:20.274Z,7.05
2022-09-15T23:08:52.500Z,8.20
2022-09-15T23:11:20.927Z,9.20
2022-09-15T23:13:50.309Z,7.20
2022-09-15T23:16:18.494Z,5.87
2022-09-15T23:18:46.572Z,6.03
2022-09-15T23:21:15.008Z,8.13
2022-09-15T23:23:45.284Z,9.83
2022-09-15T23:26:16.690Z,6.03
2022-09-15T23:28:44.431Z,7.10
2022-09-15T23:31:14.502Z,9.67
2022-09-15T23:33:42.906Z,8.90
2022-09-15T23:36:13.400Z,9.43
2022-09-15T23:38:44.022Z,6.83
2022-09-15T23:41:12.845Z,6.63
2022-09-15T23:43:41.020Z,7.10
2022-09-15T23:46:09.233Z,6.93
2022-09-15T23:48:38.433Z,7.33
2022-09-15T23:51:06.687Z,5.60
2022-09-15T23:53:35.005Z,8.80
2022-09-15T23:56:03.142Z,6.13
2022-09-15T23:58:31.075Z,6.25
